Meteorología y climatología de Navarra
Datos de la estación - Meteo Navarra

Estación de Yesa GN

Altitud 487 m.


Datos desde el 14/08/2019 hasta el 15/08/2019 en horario solar
Los datos son PROVISIONALES

Anterior Página 1 de 1 Siguiente Descargar: Formato para Excel 2000 o superior   Formato csv   Formato para OpenOffice Calc
Fecha Temperatura Humedad relativa Radiación global Insolación Precipitación Vel. viento 10 m Vel. viento 10 m Dir. viento 10 m
ºC % W/m² s l/m² m/s km/h º
14/08/2019 0:00 11.4 81 0.0 0 0.0 0.3 1.0 271
14/08/2019 0:10 11.1 82 0.0 0 0.0 0.9 3.2 305
14/08/2019 0:20 11.0 82 0.0 0 0.0 0.6 2.0 252
14/08/2019 0:30 10.9 83 0.0 0 0.0 0.2 0.9 278
14/08/2019 0:40 10.5 85 0.0 0 0.0 1.1 4.0 314
14/08/2019 0:50 10.7 86 0.0 0 0.0 1.6 5.9 318
14/08/2019 1:00 10.7 86 0.0 0 0.0 1.0 3.7 310
14/08/2019 1:10 10.6 86 0.0 0 0.0 0.6 2.2 329
14/08/2019 1:20 10.7 87 0.0 0 0.0 0.8 3.0 318
14/08/2019 1:30 10.6 86 0.0 0 0.0 0.2 0.6 214
14/08/2019 1:40 10.3 87 0.0 0 0.0 0.1 0.2 275
14/08/2019 1:50 9.8 89 0.0 0 0.0 0.4 1.3 358
14/08/2019 2:00 9.8 90 0.0 0 0.0 1.5 5.3 335
14/08/2019 2:10 10.2 88 0.0 0 0.0 0.2 0.8 214
14/08/2019 2:20 9.7 90 0.0 0 0.0 0.1 0.3 280
14/08/2019 2:30 9.5 91 0.0 0 0.0 0.1 0.2 316
14/08/2019 2:40 9.1 91 0.0 0 0.0 0.3 1.0 57
14/08/2019 2:50 9.0 92 0.0 0 0.0 0.1 0.2 97
14/08/2019 3:00 9.0 93 0.0 0 0.0 0.5 1.8 355
14/08/2019 3:10 9.0 93 0.0 0 0.0 0.1 0.5 66
14/08/2019 3:20 9.1 94 0.0 0 0.0 0.1 0.3 57
14/08/2019 3:30 9.0 94 0.0 0 0.0 0.4 1.3 92
14/08/2019 3:40 9.0 95 0.0 0 0.0 0.1 0.3 31
14/08/2019 3:50 9.3 94 0.0 0 0.0 0.2 0.5 227
14/08/2019 4:00 8.9 93 0.0 0 0.0 0.3 1.0 135
14/08/2019 4:10 9.0 95 0.0 0 0.0 1.7 5.9 96
14/08/2019 4:20 11.0 89 0.0 0 0.0 2.2 8.0 100
14/08/2019 4:30 11.5 85 0.0 0 0.0 2.4 8.6 104
14/08/2019 4:40 12.0 83 0.0 0 0.0 3.1 11.2 99
14/08/2019 4:50 11.9 81 0.0 0 0.0 2.7 9.8 101
14/08/2019 5:00 11.9 81 0.0 0 0.0 2.6 9.2 98
14/08/2019 5:10 11.9 82 0.0 0 0.0 2.8 10.0 95
14/08/2019 5:20 11.9 82 0.0 0 0.0 3.1 11.1 96
14/08/2019 5:30 11.9 81 7.3 0 0.0 3.0 10.7 98
14/08/2019 5:40 11.8 81 21.4 0 0.0 3.4 12.2 102
14/08/2019 5:50 11.7 82 26.5 0 0.0 3.1 11.2 99
14/08/2019 6:00 11.7 80 80.7 486 0.0 3.1 11.1 96
14/08/2019 6:10 12.0 78 110.6 600 0.0 3.5 12.7 99
14/08/2019 6:20 12.2 78 144.8 600 0.0 3.2 11.5 101
14/08/2019 6:30 12.5 77 175.7 600 0.0 3.7 13.5 100
14/08/2019 6:40 12.7 76 206.3 600 0.0 3.7 13.4 100
14/08/2019 6:50 13.0 75 240.1 600 0.0 3.7 13.4 99
14/08/2019 7:00 13.3 73 272.9 600 0.0 3.2 11.4 113
14/08/2019 7:10 13.6 74 305.4 600 0.0 3.0 10.7 104
14/08/2019 7:20 14.0 73 338.3 600 0.0 3.2 11.3 108
14/08/2019 7:30 14.1 72 371.1 600 0.0 3.0 10.8 106
14/08/2019 7:40 14.3 68 403.6 600 0.0 3.4 12.4 107
14/08/2019 7:50 14.8 67 435.6 600 0.0 3.2 11.4 109
14/08/2019 8:00 15.1 63 467.5 600 0.0 3.0 10.9 109
14/08/2019 8:10 15.5 62 500.0 600 0.0 2.9 10.3 115
14/08/2019 8:20 16.2 60 530.8 600 0.0 2.4 8.7 113
14/08/2019 8:30 16.5 59 561.2 600 0.0 2.5 9.1 117
14/08/2019 8:40 17.0 59 589.2 600 0.0 1.8 6.6 127
14/08/2019 8:50 17.2 58 617.2 600 0.0 2.0 7.3 122
14/08/2019 9:00 17.6 56 645.0 600 0.0 2.0 7.2 133
14/08/2019 9:10 18.1 54 672.1 600 0.0 2.0 7.2 125
14/08/2019 9:20 18.8 52 697.3 600 0.0 1.7 6.1 145
14/08/2019 9:30 19.3 50 718.1 600 0.0 1.6 5.7 149
14/08/2019 9:40 19.5 50 740.2 600 0.0 1.2 4.2 131
14/08/2019 9:50 20.3 49 763.5 600 0.0 1.2 4.4 147
14/08/2019 10:00 21.3 47 789.9 600 0.0 1.0 3.5 172
14/08/2019 10:10 22.1 42 805.0 600 0.0 1.8 6.3 172
14/08/2019 10:20 23.2 39 824.0 600 0.0 1.8 6.6 203
14/08/2019 10:30 24.3 35 842.0 600 0.0 1.7 6.3 198
14/08/2019 10:40 25.0 30 864.0 600 0.0 2.7 9.9 204
14/08/2019 10:50 25.7 27 883.0 600 0.0 3.6 13.1 315
14/08/2019 11:00 26.0 28 893.0 600 0.0 2.9 10.6 329
14/08/2019 11:10 26.3 28 904.0 600 0.0 2.0 7.3 269
14/08/2019 11:20 26.3 29 905.0 600 0.0 3.4 12.3 305
14/08/2019 11:30 26.9 29 914.0 600 0.0 2.1 7.7 292
14/08/2019 11:40 26.8 29 920.0 600 0.0 2.9 10.5 269
14/08/2019 11:50 26.9 30 916.0 600 0.0 2.3 8.4 279
14/08/2019 12:00 27.4 29 922.0 600 0.0 2.7 9.6 278
14/08/2019 12:10 27.6 29 922.0 600 0.0 3.3 11.8 276
14/08/2019 12:20 27.8 29 921.0 600 0.0 2.9 10.5 279
14/08/2019 12:30 27.8 29 916.0 600 0.0 3.1 11.0 295
14/08/2019 12:40 28.1 29 913.0 600 0.0 4.4 15.8 309
14/08/2019 12:50 28.3 29 907.0 600 0.0 3.5 12.7 305
14/08/2019 13:00 28.3 29 900.0 600 0.0 2.9 10.5 286
14/08/2019 13:10 28.4 29 885.0 600 0.0 2.8 10.2 280
14/08/2019 13:20 28.8 30 882.0 600 0.0 3.6 13.0 301
14/08/2019 13:30 28.9 30 867.0 600 0.0 3.9 14.1 317
14/08/2019 13:40 29.0 31 846.0 600 0.0 3.9 14.0 303
14/08/2019 13:50 28.8 32 838.0 600 0.0 2.8 9.9 298
14/08/2019 14:00 29.3 32 827.0 600 0.0 3.9 14.0 313
14/08/2019 14:10 29.1 33 807.0 600 0.0 4.6 16.6 311
14/08/2019 14:20 29.2 33 788.3 600 0.0 3.2 11.6 314
14/08/2019 14:30 29.6 33 768.5 600 0.0 4.1 14.7 313
14/08/2019 14:40 29.6 33 748.9 600 0.0 4.0 14.4 308
14/08/2019 14:50 29.5 34 726.7 600 0.0 4.6 16.4 311
14/08/2019 15:00 29.5 33 704.6 600 0.0 5.0 17.8 305
14/08/2019 15:10 29.4 33 677.5 600 0.0 5.0 17.8 310
14/08/2019 15:20 29.2 33 648.9 600 0.0 4.5 16.3 299
14/08/2019 15:30 29.2 34 620.8 600 0.0 3.6 13.1 287
14/08/2019 15:40 29.2 34 592.3 600 0.0 3.2 11.3 280
14/08/2019 15:50 29.0 35 564.1 600 0.0 4.9 17.5 316
14/08/2019 16:00 28.9 36 535.5 600 0.0 3.5 12.7 331
14/08/2019 16:10 28.7 36 505.7 600 0.0 5.2 18.5 321
14/08/2019 16:20 28.3 37 474.5 600 0.0 4.6 16.4 316
14/08/2019 16:30 28.1 37 443.1 600 0.0 5.0 18.0 317
14/08/2019 16:40 27.5 38 411.4 600 0.0 5.6 20.2 330
14/08/2019 16:50 27.3 38 379.0 600 0.0 4.1 14.9 319
14/08/2019 17:00 27.4 38 350.1 600 0.0 4.3 15.3 308
14/08/2019 17:10 27.1 39 308.9 600 0.0 4.7 17.1 325
14/08/2019 17:20 26.8 40 261.3 600 0.0 6.0 21.7 317
14/08/2019 17:30 26.4 41 233.0 600 0.0 5.1 18.2 318
14/08/2019 17:40 26.3 41 218.8 600 0.0 2.9 10.5 327
14/08/2019 17:50 26.3 41 178.6 600 0.0 2.1 7.6 315
14/08/2019 18:00 26.1 41 151.9 600 0.0 2.4 8.5 322
14/08/2019 18:10 25.7 42 118.4 522 0.0 3.4 12.2 333
14/08/2019 18:20 25.1 44 26.3 0 0.0 4.0 14.3 321
14/08/2019 18:30 24.9 45 22.5 0 0.0 4.6 16.7 324
14/08/2019 18:40 24.5 45 17.8 0 0.0 4.4 15.8 331
14/08/2019 18:50 24.2 46 9.9 0 0.0 3.6 12.9 351
14/08/2019 19:00 24.2 47 0.6 0 0.0 2.4 8.7 338
14/08/2019 19:10 24.0 47 0.0 0 0.0 2.9 10.6 340
14/08/2019 19:20 23.8 48 0.0 0 0.0 2.1 7.6 349
14/08/2019 19:30 23.7 49 0.0 0 0.0 2.7 9.6 68
14/08/2019 19:40 23.7 49 0.0 0 0.0 1.7 6.2 148
14/08/2019 19:50 23.5 51 0.0 0 0.0 1.5 5.5 62
14/08/2019 20:00 23.5 51 0.0 0 0.0 0.9 3.4 253
14/08/2019 20:10 23.3 53 0.0 0 0.0 1.7 6.2 16
14/08/2019 20:20 23.2 54 0.0 0 0.0 2.5 8.9 9
14/08/2019 20:30 22.9 55 0.0 0 0.0 2.5 9.0 346
14/08/2019 20:40 22.7 56 0.0 0 0.0 2.7 9.7 352
14/08/2019 20:50 22.3 56 0.0 0 0.0 2.1 7.5 290
14/08/2019 21:00 22.0 57 0.0 0 0.0 2.7 9.6 318
14/08/2019 21:10 21.7 59 0.0 0 0.0 2.0 7.1 26
14/08/2019 21:20 21.8 60 0.0 0 0.0 1.3 4.6 202
14/08/2019 21:30 21.2 62 0.0 0 0.0 0.8 2.8 166
14/08/2019 21:40 20.9 63 0.0 0 0.0 1.0 3.7 237
14/08/2019 21:50 20.5 64 0.0 0 0.0 1.1 4.0 221
14/08/2019 22:00 20.6 65 0.0 0 0.0 1.0 3.6 247
14/08/2019 22:10 20.7 65 0.0 0 0.0 1.5 5.3 264
14/08/2019 22:20 20.4 66 0.0 0 0.0 0.8 2.8 78
14/08/2019 22:30 20.5 67 0.0 0 0.0 1.6 5.9 354
14/08/2019 22:40 20.1 68 0.0 0 0.0 0.9 3.3 64
14/08/2019 22:50 20.9 66 0.0 0 0.0 2.2 7.8 214
14/08/2019 23:00 21.5 65 0.0 0 0.0 2.8 10.0 294
14/08/2019 23:10 21.7 64 0.0 0 0.0 1.6 5.9 95
14/08/2019 23:20 21.4 65 0.0 0 0.0 1.1 3.9 200
14/08/2019 23:30 20.9 67 0.0 0 0.0 1.1 4.0 286
14/08/2019 23:40 20.1 70 0.0 0 0.0 1.5 5.5 284
14/08/2019 23:50 20.7 68 0.0 0 0.0 2.0 7.1 280
Anterior Página 1 de 1 Siguiente

NOTA: Tipo de datos según el color:
   - Valores diarios o 10 minutos correctos
   - Valores diarios calculados a partir de un número de datos 10 minutos menor que 144 y mayor que 120, o de un número de datos semihorarios menor que 48 y mayor que 40 (caso de las estaciones de Riegos de Navarra y del MARM)
   - Valores diez minutos estimados


Contacto        Enlaces        Aviso legal